sensor_id;sensor_type;location;lat;lon;timestamp;P1;durP1;ratioP1;P2;durP2;ratioP2
17345;SDS011;8790;53.590;10.002;2022-11-20T00:01:53;5.33;;;3.27;;
17345;SDS011;8790;53.590;10.002;2022-11-20T00:04:25;6.20;;;3.93;;
17345;SDS011;8790;53.590;10.002;2022-11-20T00:06:57;4.80;;;3.60;;
17345;SDS011;8790;53.590;10.002;2022-11-20T00:09:28;5.70;;;3.60;;
17345;SDS011;8790;53.590;10.002;2022-11-20T00:12:00;4.17;;;3.37;;
17345;SDS011;8790;53.590;10.002;2022-11-20T00:14:32;4.80;;;3.30;;
17345;SDS011;8790;53.590;10.002;2022-11-20T00:17:05;5.70;;;3.47;;
17345;SDS011;8790;53.590;10.002;2022-11-20T00:19:37;7.33;;;4.70;;
17345;SDS011;8790;53.590;10.002;2022-11-20T00:22:08;6.03;;;3.90;;
17345;SDS011;8790;53.590;10.002;2022-11-20T00:24:40;5.17;;;3.90;;
17345;SDS011;8790;53.590;10.002;2022-11-20T00:27:12;5.50;;;4.17;;
17345;SDS011;8790;53.590;10.002;2022-11-20T00:29:44;8.77;;;5.63;;
17345;SDS011;8790;53.590;10.002;2022-11-20T00:32:17;6.37;;;4.27;;
17345;SDS011;8790;53.590;10.002;2022-11-20T00:34:49;6.33;;;3.60;;
17345;SDS011;8790;53.590;10.002;2022-11-20T00:37:20;6.97;;;3.40;;
17345;SDS011;8790;53.590;10.002;2022-11-20T00:39:52;4.57;;;3.37;;
17345;SDS011;8790;53.590;10.002;2022-11-20T00:42:24;4.67;;;3.30;;
17345;SDS011;8790;53.590;10.002;2022-11-20T00:44:56;4.47;;;3.30;;
17345;SDS011;8790;53.590;10.002;2022-11-20T00:47:29;5.57;;;3.17;;
17345;SDS011;8790;53.590;10.002;2022-11-20T00:50:00;4.17;;;3.20;;
17345;SDS011;8790;53.590;10.002;2022-11-20T00:52:32;5.00;;;3.70;;
17345;SDS011;8790;53.590;10.002;2022-11-20T00:55:04;5.57;;;3.50;;
17345;SDS011;8790;53.590;10.002;2022-11-20T00:57:36;4.27;;;3.10;;
17345;SDS011;8790;53.590;10.002;2022-11-20T01:00:08;6.07;;;3.60;;
17345;SDS011;8790;53.590;10.002;2022-11-20T01:02:42;4.93;;;2.90;;
17345;SDS011;8790;53.590;10.002;2022-11-20T01:05:14;3.97;;;2.90;;
17345;SDS011;8790;53.590;10.002;2022-11-20T01:07:45;4.03;;;2.80;;
17345;SDS011;8790;53.590;10.002;2022-11-20T01:10:17;5.17;;;2.90;;
17345;SDS011;8790;53.590;10.002;2022-11-20T01:12:49;5.87;;;3.40;;
17345;SDS011;8790;53.590;10.002;2022-11-20T01:15:41;5.10;;;3.20;;
17345;SDS011;8790;53.590;10.002;2022-11-20T01:18:14;3.80;;;2.77;;
17345;SDS011;8790;53.590;10.002;2022-11-20T01:20:45;5.10;;;3.27;;
17345;SDS011;8790;53.590;10.002;2022-11-20T01:23:17;4.87;;;3.20;;
17345;SDS011;8790;53.590;10.002;2022-11-20T01:25:49;4.60;;;3.17;;
17345;SDS011;8790;53.590;10.002;2022-11-20T01:28:21;5.67;;;3.33;;
17345;SDS011;8790;53.590;10.002;2022-11-20T01:30:52;5.70;;;3.00;;
17345;SDS011;8790;53.590;10.002;2022-11-20T01:33:25;4.20;;;3.00;;
17345;SDS011;8790;53.590;10.002;2022-11-20T01:36:03;3.97;;;3.10;;
17345;SDS011;8790;53.590;10.002;2022-11-20T01:38:35;5.70;;;3.40;;
17345;SDS011;8790;53.590;10.002;2022-11-20T01:41:07;5.37;;;3.20;;
17345;SDS011;8790;53.590;10.002;2022-11-20T01:43:41;4.53;;;3.30;;
17345;SDS011;8790;53.590;10.002;2022-11-20T01:46:15;5.00;;;3.40;;
17345;SDS011;8790;53.590;10.002;2022-11-20T01:48:50;4.20;;;3.13;;
17345;SDS011;8790;53.590;10.002;2022-11-20T01:51:26;4.80;;;3.57;;
17345;SDS011;8790;53.590;10.002;2022-11-20T01:54:03;4.87;;;3.10;;
17345;SDS011;8790;53.590;10.002;2022-11-20T01:56:38;6.00;;;3.57;;
17345;SDS011;8790;53.590;10.002;2022-11-20T01:59:13;3.90;;;3.20;;
17345;SDS011;8790;53.590;10.002;2022-11-20T02:01:48;4.30;;;3.40;;
17345;SDS011;8790;53.590;10.002;2022-11-20T02:04:21;4.37;;;3.30;;
17345;SDS011;8790;53.590;10.002;2022-11-20T02:06:55;4.80;;;3.30;;
17345;SDS011;8790;53.590;10.002;2022-11-20T02:09:30;3.80;;;3.07;;
17345;SDS011;8790;53.590;10.002;2022-11-20T02:12:02;5.07;;;3.37;;
17345;SDS011;8790;53.590;10.002;2022-11-20T02:14:34;4.50;;;3.47;;
17345;SDS011;8790;53.590;10.002;2022-11-20T02:17:05;5.70;;;3.77;;
17345;SDS011;8790;53.590;10.002;2022-11-20T02:19:38;4.47;;;3.33;;
17345;SDS011;8790;53.590;10.002;2022-11-20T02:22:10;4.27;;;3.53;;
17345;SDS011;8790;53.590;10.002;2022-11-20T02:24:50;5.60;;;3.50;;
17345;SDS011;8790;53.590;10.002;2022-11-20T02:27:22;4.70;;;3.30;;
17345;SDS011;8790;53.590;10.002;2022-11-20T02:29:55;5.37;;;3.20;;
17345;SDS011;8790;53.590;10.002;2022-11-20T02:32:31;6.33;;;3.50;;
17345;SDS011;8790;53.590;10.002;2022-11-20T02:35:08;4.23;;;2.97;;
17345;SDS011;8790;53.590;10.002;2022-11-20T02:38:01;3.50;;;3.17;;
17345;SDS011;8790;53.590;10.002;2022-11-20T02:40:35;4.00;;;3.07;;
17345;SDS011;8790;53.590;10.002;2022-11-20T02:43:07;3.43;;;2.77;;
17345;SDS011;8790;53.590;10.002;2022-11-20T02:45:39;5.47;;;3.60;;
17345;SDS011;8790;53.590;10.002;2022-11-20T02:48:11;3.77;;;2.90;;
17345;SDS011;8790;53.590;10.002;2022-11-20T02:50:42;7.13;;;3.23;;
17345;SDS011;8790;53.590;10.002;2022-11-20T02:53:14;3.80;;;3.20;;
17345;SDS011;8790;53.590;10.002;2022-11-20T02:55:47;4.23;;;3.27;;
17345;SDS011;8790;53.590;10.002;2022-11-20T02:58:19;3.93;;;3.00;;
17345;SDS011;8790;53.590;10.002;2022-11-20T03:00:51;5.53;;;2.93;;
17345;SDS011;8790;53.590;10.002;2022-11-20T03:03:23;3.77;;;2.90;;
17345;SDS011;8790;53.590;10.002;2022-11-20T03:05:55;3.83;;;3.10;;
17345;SDS011;8790;53.590;10.002;2022-11-20T03:08:29;5.50;;;3.17;;
17345;SDS011;8790;53.590;10.002;2022-11-20T03:11:06;4.60;;;3.37;;
17345;SDS011;8790;53.590;10.002;2022-11-20T03:13:38;6.73;;;3.00;;
17345;SDS011;8790;53.590;10.002;2022-11-20T03:16:11;4.50;;;3.30;;
17345;SDS011;8790;53.590;10.002;2022-11-20T03:18:44;4.17;;;3.40;;
17345;SDS011;8790;53.590;10.002;2022-11-20T03:21:16;5.07;;;3.10;;
17345;SDS011;8790;53.590;10.002;2022-11-20T03:23:50;3.80;;;3.33;;
17345;SDS011;8790;53.590;10.002;2022-11-20T03:26:25;3.77;;;3.03;;
17345;SDS011;8790;53.590;10.002;2022-11-20T03:28:58;4.47;;;3.20;;
17345;SDS011;8790;53.590;10.002;2022-11-20T03:31:32;4.00;;;3.20;;
17345;SDS011;8790;53.590;10.002;2022-11-20T03:34:05;4.67;;;3.50;;
17345;SDS011;8790;53.590;10.002;2022-11-20T03:36:37;5.40;;;3.77;;
17345;SDS011;8790;53.590;10.002;2022-11-20T03:39:10;4.67;;;3.27;;
17345;SDS011;8790;53.590;10.002;2022-11-20T03:41:43;6.53;;;3.50;;
17345;SDS011;8790;53.590;10.002;2022-11-20T03:44:14;4.37;;;3.20;;
17345;SDS011;8790;53.590;10.002;2022-11-20T03:46:46;4.83;;;3.27;;
17345;SDS011;8790;53.590;10.002;2022-11-20T03:49:18;3.73;;;3.30;;
17345;SDS011;8790;53.590;10.002;2022-11-20T03:51:49;4.77;;;3.50;;
17345;SDS011;8790;53.590;10.002;2022-11-20T03:54:21;4.57;;;3.10;;
17345;SDS011;8790;53.590;10.002;2022-11-20T03:56:54;3.87;;;2.97;;
17345;SDS011;8790;53.590;10.002;2022-11-20T03:59:26;4.57;;;3.10;;
17345;SDS011;8790;53.590;10.002;2022-11-20T04:01:58;4.57;;;3.10;;
17345;SDS011;8790;53.590;10.002;2022-11-20T04:04:29;4.43;;;3.30;;
17345;SDS011;8790;53.590;10.002;2022-11-20T04:07:01;4.20;;;3.13;;
17345;SDS011;8790;53.590;10.002;2022-11-20T04:09:33;3.97;;;3.47;;
17345;SDS011;8790;53.590;10.002;2022-11-20T04:12:06;5.10;;;3.50;;
17345;SDS011;8790;53.590;10.002;2022-11-20T04:14:38;6.37;;;4.10;;
17345;SDS011;8790;53.590;10.002;2022-11-20T04:17:09;3.87;;;3.30;;
17345;SDS011;8790;53.590;10.002;2022-11-20T04:19:41;6.17;;;3.60;;
17345;SDS011;8790;53.590;10.002;2022-11-20T04:22:13;5.37;;;3.57;;
17345;SDS011;8790;53.590;10.002;2022-11-20T04:24:45;4.97;;;3.73;;
17345;SDS011;8790;53.590;10.002;2022-11-20T04:27:18;4.23;;;3.70;;
17345;SDS011;8790;53.590;10.002;2022-11-20T04:29:49;4.87;;;3.57;;
17345;SDS011;8790;53.590;10.002;2022-11-20T04:32:21;4.20;;;3.63;;
17345;SDS011;8790;53.590;10.002;2022-11-20T04:34:53;5.97;;;4.00;;
17345;SDS011;8790;53.590;10.002;2022-11-20T04:37:24;5.67;;;3.80;;
17345;SDS011;8790;53.590;10.002;2022-11-20T04:39:56;4.27;;;3.37;;
17345;SDS011;8790;53.590;10.002;2022-11-20T04:42:29;6.63;;;3.80;;
17345;SDS011;8790;53.590;10.002;2022-11-20T04:45:01;4.90;;;3.70;;
17345;SDS011;8790;53.590;10.002;2022-11-20T04:47:33;5.03;;;3.57;;
17345;SDS011;8790;53.590;10.002;2022-11-20T04:50:05;5.33;;;3.77;;
17345;SDS011;8790;53.590;10.002;2022-11-20T04:52:37;5.00;;;3.40;;
17345;SDS011;8790;53.590;10.002;2022-11-20T04:55:09;5.33;;;3.73;;
17345;SDS011;8790;53.590;10.002;2022-11-20T04:57:42;5.30;;;4.00;;
17345;SDS011;8790;53.590;10.002;2022-11-20T05:00:14;5.33;;;3.87;;
17345;SDS011;8790;53.590;10.002;2022-11-20T05:02:46;5.00;;;3.43;;
17345;SDS011;8790;53.590;10.002;2022-11-20T05:05:18;5.90;;;3.67;;
17345;SDS011;8790;53.590;10.002;2022-11-20T05:07:50;5.20;;;3.53;;
17345;SDS011;8790;53.590;10.002;2022-11-20T05:10:22;4.60;;;3.90;;
17345;SDS011;8790;53.590;10.002;2022-11-20T05:12:56;4.60;;;3.63;;
17345;SDS011;8790;53.590;10.002;2022-11-20T05:15:28;4.30;;;3.63;;
17345;SDS011;8790;53.590;10.002;2022-11-20T05:18:00;6.20;;;3.63;;
17345;SDS011;8790;53.590;10.002;2022-11-20T05:20:31;5.37;;;3.83;;
17345;SDS011;8790;53.590;10.002;2022-11-20T05:23:03;4.87;;;3.60;;
17345;SDS011;8790;53.590;10.002;2022-11-20T05:25:35;4.67;;;4.07;;
17345;SDS011;8790;53.590;10.002;2022-11-20T05:28:08;4.83;;;3.73;;
17345;SDS011;8790;53.590;10.002;2022-11-20T05:30:39;4.47;;;3.67;;
17345;SDS011;8790;53.590;10.002;2022-11-20T05:33:11;4.63;;;3.73;;
17345;SDS011;8790;53.590;10.002;2022-11-20T05:35:43;4.17;;;3.60;;
17345;SDS011;8790;53.590;10.002;2022-11-20T05:38:15;4.50;;;4.00;;
17345;SDS011;8790;53.590;10.002;2022-11-20T05:40:47;4.77;;;3.40;;
17345;SDS011;8790;53.590;10.002;2022-11-20T05:43:20;6.23;;;4.20;;
17345;SDS011;8790;53.590;10.002;2022-11-20T05:45:52;3.97;;;3.57;;
17345;SDS011;8790;53.590;10.002;2022-11-20T05:48:24;5.03;;;4.00;;
17345;SDS011;8790;53.590;10.002;2022-11-20T05:50:56;5.33;;;3.70;;
17345;SDS011;8790;53.590;10.002;2022-11-20T05:53:29;4.50;;;4.00;;
17345;SDS011;8790;53.590;10.002;2022-11-20T05:56:02;4.77;;;3.97;;
17345;SDS011;8790;53.590;10.002;2022-11-20T05:58:37;4.93;;;3.87;;
17345;SDS011;8790;53.590;10.002;2022-11-20T06:01:10;6.83;;;4.10;;
17345;SDS011;8790;53.590;10.002;2022-11-20T06:03:43;6.03;;;3.67;;
17345;SDS011;8790;53.590;10.002;2022-11-20T06:06:17;5.67;;;3.90;;
17345;SDS011;8790;53.590;10.002;2022-11-20T06:08:50;6.90;;;4.40;;
17345;SDS011;8790;53.590;10.002;2022-11-20T06:11:21;6.60;;;4.90;;
17345;SDS011;8790;53.590;10.002;2022-11-20T06:13:54;7.07;;;4.80;;
17345;SDS011;8790;53.590;10.002;2022-11-20T06:16:26;5.73;;;4.80;;
17345;SDS011;8790;53.590;10.002;2022-11-20T06:18:58;7.20;;;5.13;;
17345;SDS011;8790;53.590;10.002;2022-11-20T06:21:29;10.83;;;5.93;;
17345;SDS011;8790;53.590;10.002;2022-11-20T06:24:01;8.73;;;5.70;;
17345;SDS011;8790;53.590;10.002;2022-11-20T06:26:33;7.70;;;5.60;;
17345;SDS011;8790;53.590;10.002;2022-11-20T06:29:06;7.07;;;5.50;;
17345;SDS011;8790;53.590;10.002;2022-11-20T06:31:38;9.10;;;6.27;;
17345;SDS011;8790;53.590;10.002;2022-11-20T06:34:09;8.20;;;6.50;;
17345;SDS011;8790;53.590;10.002;2022-11-20T06:36:41;9.03;;;7.03;;
17345;SDS011;8790;53.590;10.002;2022-11-20T06:39:13;10.73;;;6.90;;
17345;SDS011;8790;53.590;10.002;2022-11-20T06:41:44;8.67;;;6.47;;
17345;SDS011;8790;53.590;10.002;2022-11-20T06:44:17;10.20;;;6.60;;
17345;SDS011;8790;53.590;10.002;2022-11-20T06:46:49;8.77;;;5.97;;
17345;SDS011;8790;53.590;10.002;2022-11-20T06:49:21;7.43;;;5.53;;
17345;SDS011;8790;53.590;10.002;2022-11-20T06:51:52;6.90;;;5.97;;
17345;SDS011;8790;53.590;10.002;2022-11-20T06:54:24;7.90;;;5.63;;
17345;SDS011;8790;53.590;10.002;2022-11-20T06:56:56;7.83;;;5.50;;
17345;SDS011;8790;53.590;10.002;2022-11-20T06:59:29;7.33;;;5.50;;
17345;SDS011;8790;53.590;10.002;2022-11-20T07:02:01;6.20;;;4.83;;
17345;SDS011;8790;53.590;10.002;2022-11-20T07:04:32;6.07;;;5.10;;
17345;SDS011;8790;53.590;10.002;2022-11-20T07:07:04;6.43;;;4.93;;
17345;SDS011;8790;53.590;10.002;2022-11-20T07:09:36;6.93;;;5.33;;
17345;SDS011;8790;53.590;10.002;2022-11-20T07:12:08;7.53;;;4.47;;
17345;SDS011;8790;53.590;10.002;2022-11-20T07:14:41;8.23;;;5.27;;
17345;SDS011;8790;53.590;10.002;2022-11-20T07:17:13;7.70;;;4.70;;
17345;SDS011;8790;53.590;10.002;2022-11-20T07:19:44;5.53;;;4.43;;
17345;SDS011;8790;53.590;10.002;2022-11-20T07:22:16;5.57;;;4.60;;
17345;SDS011;8790;53.590;10.002;2022-11-20T07:24:48;5.73;;;4.17;;
17345;SDS011;8790;53.590;10.002;2022-11-20T07:27:19;5.93;;;4.60;;
17345;SDS011;8790;53.590;10.002;2022-11-20T07:29:52;5.57;;;4.57;;
17345;SDS011;8790;53.590;10.002;2022-11-20T07:32:24;5.80;;;4.57;;
17345;SDS011;8790;53.590;10.002;2022-11-20T07:34:56;5.67;;;4.33;;
17345;SDS011;8790;53.590;10.002;2022-11-20T07:37:28;7.23;;;4.53;;
17345;SDS011;8790;53.590;10.002;2022-11-20T07:39:59;5.50;;;4.10;;
17345;SDS011;8790;53.590;10.002;2022-11-20T07:42:31;5.80;;;3.90;;
17345;SDS011;8790;53.590;10.002;2022-11-20T07:45:05;5.47;;;3.90;;
17345;SDS011;8790;53.590;10.002;2022-11-20T07:47:37;5.37;;;4.07;;
17345;SDS011;8790;53.590;10.002;2022-11-20T07:50:09;6.07;;;4.20;;
17345;SDS011;8790;53.590;10.002;2022-11-20T07:52:41;9.30;;;4.40;;
17345;SDS011;8790;53.590;10.002;2022-11-20T07:55:13;5.67;;;4.47;;
17345;SDS011;8790;53.590;10.002;2022-11-20T07:57:45;5.90;;;4.40;;
17345;SDS011;8790;53.590;10.002;2022-11-20T08:00:18;5.07;;;4.10;;
17345;SDS011;8790;53.590;10.002;2022-11-20T08:02:50;6.37;;;4.60;;
17345;SDS011;8790;53.590;10.002;2022-11-20T08:05:21;6.40;;;4.73;;
17345;SDS011;8790;53.590;10.002;2022-11-20T08:07:53;6.47;;;5.17;;
17345;SDS011;8790;53.590;10.002;2022-11-20T08:10:25;7.00;;;4.97;;
17345;SDS011;8790;53.590;10.002;2022-11-20T08:12:57;6.97;;;4.60;;
17345;SDS011;8790;53.590;10.002;2022-11-20T08:15:49;7.30;;;4.67;;
17345;SDS011;8790;53.590;10.002;2022-11-20T08:18:21;7.20;;;4.80;;
17345;SDS011;8790;53.590;10.002;2022-11-20T08:20:53;5.97;;;4.40;;
17345;SDS011;8790;53.590;10.002;2022-11-20T08:23:25;6.27;;;4.50;;
17345;SDS011;8790;53.590;10.002;2022-11-20T08:25:56;5.67;;;4.30;;
17345;SDS011;8790;53.590;10.002;2022-11-20T08:28:30;5.83;;;4.10;;
17345;SDS011;8790;53.590;10.002;2022-11-20T08:31:04;4.63;;;3.50;;
17345;SDS011;8790;53.590;10.002;2022-11-20T08:33:35;4.00;;;3.03;;
17345;SDS011;8790;53.590;10.002;2022-11-20T08:36:07;4.70;;;2.97;;
17345;SDS011;8790;53.590;10.002;2022-11-20T08:38:39;3.37;;;2.80;;
17345;SDS011;8790;53.590;10.002;2022-11-20T08:41:11;3.80;;;3.17;;
17345;SDS011;8790;53.590;10.002;2022-11-20T08:43:56;3.87;;;2.90;;
17345;SDS011;8790;53.590;10.002;2022-11-20T08:46:33;3.03;;;2.67;;
17345;SDS011;8790;53.590;10.002;2022-11-20T08:49:07;4.17;;;3.27;;
17345;SDS011;8790;53.590;10.002;2022-11-20T08:51:41;3.37;;;3.07;;
17345;SDS011;8790;53.590;10.002;2022-11-20T08:54:13;3.90;;;3.10;;
17345;SDS011;8790;53.590;10.002;2022-11-20T08:56:45;3.83;;;3.00;;
17345;SDS011;8790;53.590;10.002;2022-11-20T08:59:17;3.50;;;3.10;;
17345;SDS011;8790;53.590;10.002;2022-11-20T09:01:50;4.03;;;3.23;;
17345;SDS011;8790;53.590;10.002;2022-11-20T09:04:22;4.70;;;3.13;;
17345;SDS011;8790;53.590;10.002;2022-11-20T09:06:53;3.60;;;3.13;;
17345;SDS011;8790;53.590;10.002;2022-11-20T09:09:25;3.67;;;3.17;;
17345;SDS011;8790;53.590;10.002;2022-11-20T09:11:57;4.57;;;3.10;;
17345;SDS011;8790;53.590;10.002;2022-11-20T09:14:28;3.70;;;3.00;;
17345;SDS011;8790;53.590;10.002;2022-11-20T09:17:02;5.03;;;3.53;;
17345;SDS011;8790;53.590;10.002;2022-11-20T09:19:33;4.90;;;3.40;;
17345;SDS011;8790;53.590;10.002;2022-11-20T09:22:05;3.90;;;3.07;;
17345;SDS011;8790;53.590;10.002;2022-11-20T09:24:37;5.00;;;3.07;;
17345;SDS011;8790;53.590;10.002;2022-11-20T09:27:09;5.03;;;3.00;;
17345;SDS011;8790;53.590;10.002;2022-11-20T09:29:41;3.70;;;3.10;;
17345;SDS011;8790;53.590;10.002;2022-11-20T09:32:14;4.33;;;3.20;;
17345;SDS011;8790;53.590;10.002;2022-11-20T09:34:45;4.33;;;3.37;;
17345;SDS011;8790;53.590;10.002;2022-11-20T09:37:17;4.57;;;3.40;;
17345;SDS011;8790;53.590;10.002;2022-11-20T09:39:49;4.13;;;3.40;;
17345;SDS011;8790;53.590;10.002;2022-11-20T09:42:27;5.23;;;3.70;;
17345;SDS011;8790;53.590;10.002;2022-11-20T09:45:16;4.80;;;4.10;;
17345;SDS011;8790;53.590;10.002;2022-11-20T09:48:01;4.77;;;3.53;;
17345;SDS011;8790;53.590;10.002;2022-11-20T09:50:47;4.63;;;3.40;;
17345;SDS011;8790;53.590;10.002;2022-11-20T09:53:27;4.70;;;3.60;;
17345;SDS011;8790;53.590;10.002;2022-11-20T09:56:06;5.77;;;3.47;;
17345;SDS011;8790;53.590;10.002;2022-11-20T09:58:42;4.30;;;3.53;;
17345;SDS011;8790;53.590;10.002;2022-11-20T10:01:17;3.87;;;3.43;;
17345;SDS011;8790;53.590;10.002;2022-11-20T10:03:53;5.80;;;3.60;;
17345;SDS011;8790;53.590;10.002;2022-11-20T10:06:29;5.33;;;3.77;;
17345;SDS011;8790;53.590;10.002;2022-11-20T10:09:05;5.47;;;3.73;;
17345;SDS011;8790;53.590;10.002;2022-11-20T10:11:56;5.43;;;3.80;;
17345;SDS011;8790;53.590;10.002;2022-11-20T10:14:38;4.87;;;3.73;;
17345;SDS011;8790;53.590;10.002;2022-11-20T10:17:19;4.43;;;3.83;;
17345;SDS011;8790;53.590;10.002;2022-11-20T10:20:08;5.47;;;3.77;;
17345;SDS011;8790;53.590;10.002;2022-11-20T10:22:52;5.67;;;3.97;;
17345;SDS011;8790;53.590;10.002;2022-11-20T10:25:37;4.23;;;3.33;;
17345;SDS011;8790;53.590;10.002;2022-11-20T10:28:15;4.13;;;3.43;;
17345;SDS011;8790;53.590;10.002;2022-11-20T10:31:00;5.10;;;3.77;;
17345;SDS011;8790;53.590;10.002;2022-11-20T10:33:36;3.70;;;3.40;;
17345;SDS011;8790;53.590;10.002;2022-11-20T10:36:14;3.97;;;3.30;;
17345;SDS011;8790;53.590;10.002;2022-11-20T10:38:50;3.50;;;3.20;;
17345;SDS011;8790;53.590;10.002;2022-11-20T10:41:26;3.70;;;3.30;;
17345;SDS011;8790;53.590;10.002;2022-11-20T10:44:03;3.90;;;3.30;;
17345;SDS011;8790;53.590;10.002;2022-11-20T10:46:37;5.10;;;3.93;;
17345;SDS011;8790;53.590;10.002;2022-11-20T10:49:15;4.10;;;3.30;;
17345;SDS011;8790;53.590;10.002;2022-11-20T10:51:56;4.87;;;3.63;;
17345;SDS011;8790;53.590;10.002;2022-11-20T10:54:35;4.93;;;3.60;;
17345;SDS011;8790;53.590;10.002;2022-11-20T10:57:16;3.87;;;3.47;;
17345;SDS011;8790;53.590;10.002;2022-11-20T11:00:05;4.67;;;3.63;;
17345;SDS011;8790;53.590;10.002;2022-11-20T11:02:40;4.67;;;3.47;;
17345;SDS011;8790;53.590;10.002;2022-11-20T11:05:20;4.13;;;3.20;;
17345;SDS011;8790;53.590;10.002;2022-11-20T11:08:00;5.47;;;3.83;;
17345;SDS011;8790;53.590;10.002;2022-11-20T11:10:32;4.17;;;3.30;;
17345;SDS011;8790;53.590;10.002;2022-11-20T11:13:18;3.83;;;3.17;;
17345;SDS011;8790;53.590;10.002;2022-11-20T11:15:51;4.37;;;3.20;;
17345;SDS011;8790;53.590;10.002;2022-11-20T11:18:24;3.73;;;3.30;;
17345;SDS011;8790;53.590;10.002;2022-11-20T11:20:57;3.67;;;2.70;;
17345;SDS011;8790;53.590;10.002;2022-11-20T11:23:33;3.37;;;3.07;;
17345;SDS011;8790;53.590;10.002;2022-11-20T11:26:18;4.50;;;3.10;;
17345;SDS011;8790;53.590;10.002;2022-11-20T11:28:54;3.43;;;2.77;;
17345;SDS011;8790;53.590;10.002;2022-11-20T11:31:27;3.13;;;2.83;;
17345;SDS011;8790;53.590;10.002;2022-11-20T11:34:04;3.10;;;2.63;;
17345;SDS011;8790;53.590;10.002;2022-11-20T11:36:36;3.80;;;2.77;;
17345;SDS011;8790;53.590;10.002;2022-11-20T11:39:12;4.57;;;2.80;;
17345;SDS011;8790;53.590;10.002;2022-11-20T11:41:46;3.17;;;2.50;;
17345;SDS011;8790;53.590;10.002;2022-11-20T11:44:20;3.63;;;2.80;;
17345;SDS011;8790;53.590;10.002;2022-11-20T11:47:15;3.43;;;2.53;;
17345;SDS011;8790;53.590;10.002;2022-11-20T11:50:00;3.70;;;2.83;;
17345;SDS011;8790;53.590;10.002;2022-11-20T11:52:34;2.83;;;2.50;;
17345;SDS011;8790;53.590;10.002;2022-11-20T11:55:14;4.27;;;2.80;;
17345;SDS011;8790;53.590;10.002;2022-11-20T11:57:51;2.80;;;2.37;;
17345;SDS011;8790;53.590;10.002;2022-11-20T12:00:28;2.47;;;2.20;;
17345;SDS011;8790;53.590;10.002;2022-11-20T12:03:03;2.80;;;2.20;;
17345;SDS011;8790;53.590;10.002;2022-11-20T12:05:42;3.13;;;2.57;;
17345;SDS011;8790;53.590;10.002;2022-11-20T12:08:18;2.70;;;2.30;;
17345;SDS011;8790;53.590;10.002;2022-11-20T12:10:57;2.80;;;2.50;;
17345;SDS011;8790;53.590;10.002;2022-11-20T12:13:39;2.50;;;2.30;;
17345;SDS011;8790;53.590;10.002;2022-11-20T12:16:17;3.10;;;2.63;;
17345;SDS011;8790;53.590;10.002;2022-11-20T12:18:51;2.73;;;2.30;;
17345;SDS011;8790;53.590;10.002;2022-11-20T12:21:26;2.50;;;2.17;;
17345;SDS011;8790;53.590;10.002;2022-11-20T12:24:09;2.80;;;2.40;;
17345;SDS011;8790;53.590;10.002;2022-11-20T12:26:56;2.80;;;2.47;;
17345;SDS011;8790;53.590;10.002;2022-11-20T12:29:40;3.20;;;2.50;;
17345;SDS011;8790;53.590;10.002;2022-11-20T12:32:25;3.80;;;2.77;;
17345;SDS011;8790;53.590;10.002;2022-11-20T12:35:21;5.10;;;2.70;;
17345;SDS011;8790;53.590;10.002;2022-11-20T12:38:11;3.23;;;2.30;;
17345;SDS011;8790;53.590;10.002;2022-11-20T12:41:00;2.67;;;2.47;;
17345;SDS011;8790;53.590;10.002;2022-11-20T12:43:37;2.90;;;2.20;;
17345;SDS011;8790;53.590;10.002;2022-11-20T12:46:33;2.80;;;2.27;;
17345;SDS011;8790;53.590;10.002;2022-11-20T12:49:19;2.57;;;2.30;;
17345;SDS011;8790;53.590;10.002;2022-11-20T12:52:15;3.20;;;2.37;;
17345;SDS011;8790;53.590;10.002;2022-11-20T12:55:04;2.47;;;2.27;;
17345;SDS011;8790;53.590;10.002;2022-11-20T12:57:48;2.70;;;2.33;;
17345;SDS011;8790;53.590;10.002;2022-11-20T13:00:26;3.20;;;2.47;;
17345;SDS011;8790;53.590;10.002;2022-11-20T13:03:13;3.37;;;2.57;;
17345;SDS011;8790;53.590;10.002;2022-11-20T13:05:59;3.23;;;2.47;;
17345;SDS011;8790;53.590;10.002;2022-11-20T13:08:37;2.80;;;2.50;;
17345;SDS011;8790;53.590;10.002;2022-11-20T13:11:12;3.07;;;2.53;;
17345;SDS011;8790;53.590;10.002;2022-11-20T13:14:00;2.87;;;2.37;;
17345;SDS011;8790;53.590;10.002;2022-11-20T13:16:47;2.80;;;2.50;;
17345;SDS011;8790;53.590;10.002;2022-11-20T13:19:23;3.20;;;2.90;;
17345;SDS011;8790;53.590;10.002;2022-11-20T13:21:56;3.03;;;2.37;;
17345;SDS011;8790;53.590;10.002;2022-11-20T13:24:29;3.40;;;2.87;;
17345;SDS011;8790;53.590;10.002;2022-11-20T13:27:17;2.83;;;2.40;;
17345;SDS011;8790;53.590;10.002;2022-11-20T13:30:02;3.10;;;2.80;;
17345;SDS011;8790;53.590;10.002;2022-11-20T13:32:49;3.20;;;2.40;;
17345;SDS011;8790;53.590;10.002;2022-11-20T13:35:27;2.67;;;2.47;;
17345;SDS011;8790;53.590;10.002;2022-11-20T13:38:03;2.93;;;2.40;;
17345;SDS011;8790;53.590;10.002;2022-11-20T13:40:37;2.20;;;2.00;;
17345;SDS011;8790;53.590;10.002;2022-11-20T13:43:27;3.27;;;2.20;;
17345;SDS011;8790;53.590;10.002;2022-11-20T13:46:05;2.57;;;2.33;;
17345;SDS011;8790;53.590;10.002;2022-11-20T13:48:39;2.60;;;2.40;;
17345;SDS011;8790;53.590;10.002;2022-11-20T13:51:15;2.90;;;2.60;;
17345;SDS011;8790;53.590;10.002;2022-11-20T13:57:07;2.53;;;2.33;;
17345;SDS011;8790;53.590;10.002;2022-11-20T13:59:56;2.70;;;2.40;;
17345;SDS011;8790;53.590;10.002;2022-11-20T14:02:29;3.43;;;2.33;;
17345;SDS011;8790;53.590;10.002;2022-11-20T14:05:02;3.33;;;2.33;;
17345;SDS011;8790;53.590;10.002;2022-11-20T14:07:37;3.20;;;2.90;;
17345;SDS011;8790;53.590;10.002;2022-11-20T14:10:19;4.37;;;2.97;;
17345;SDS011;8790;53.590;10.002;2022-11-20T14:12:52;3.40;;;2.90;;
17345;SDS011;8790;53.590;10.002;2022-11-20T14:15:25;3.63;;;2.90;;
17345;SDS011;8790;53.590;10.002;2022-11-20T14:17:59;3.50;;;2.80;;
17345;SDS011;8790;53.590;10.002;2022-11-20T14:20:44;3.70;;;2.97;;
17345;SDS011;8790;53.590;10.002;2022-11-20T14:23:23;3.40;;;2.93;;
17345;SDS011;8790;53.590;10.002;2022-11-20T14:25:56;4.20;;;3.20;;
17345;SDS011;8790;53.590;10.002;2022-11-20T14:28:28;4.33;;;2.60;;
17345;SDS011;8790;53.590;10.002;2022-11-20T14:31:01;2.87;;;2.53;;
17345;SDS011;8790;53.590;10.002;2022-11-20T14:33:33;2.43;;;2.23;;
17345;SDS011;8790;53.590;10.002;2022-11-20T14:36:15;2.50;;;2.23;;
17345;SDS011;8790;53.590;10.002;2022-11-20T14:38:48;3.60;;;2.37;;
17345;SDS011;8790;53.590;10.002;2022-11-20T14:41:21;4.77;;;2.50;;
17345;SDS011;8790;53.590;10.002;2022-11-20T14:43:55;3.60;;;2.53;;
17345;SDS011;8790;53.590;10.002;2022-11-20T14:46:28;2.70;;;2.40;;
17345;SDS011;8790;53.590;10.002;2022-11-20T14:49:02;3.37;;;2.40;;
17345;SDS011;8790;53.590;10.002;2022-11-20T14:51:37;2.90;;;2.60;;
17345;SDS011;8790;53.590;10.002;2022-11-20T14:54:12;3.23;;;2.70;;
17345;SDS011;8790;53.590;10.002;2022-11-20T14:56:53;4.10;;;2.73;;
17345;SDS011;8790;53.590;10.002;2022-11-20T14:59:25;3.70;;;2.90;;
17345;SDS011;8790;53.590;10.002;2022-11-20T15:02:00;4.13;;;2.67;;
17345;SDS011;8790;53.590;10.002;2022-11-20T15:04:43;3.97;;;3.07;;
17345;SDS011;8790;53.590;10.002;2022-11-20T15:07:24;4.73;;;3.30;;
17345;SDS011;8790;53.590;10.002;2022-11-20T15:10:02;3.77;;;2.83;;
17345;SDS011;8790;53.590;10.002;2022-11-20T15:12:37;5.63;;;2.80;;
17345;SDS011;8790;53.590;10.002;2022-11-20T15:15:11;5.57;;;3.30;;
17345;SDS011;8790;53.590;10.002;2022-11-20T15:17:45;5.67;;;3.77;;
17345;SDS011;8790;53.590;10.002;2022-11-20T15:20:17;6.67;;;3.73;;
17345;SDS011;8790;53.590;10.002;2022-11-20T15:22:50;3.47;;;3.17;;
17345;SDS011;8790;53.590;10.002;2022-11-20T15:25:22;4.83;;;3.73;;
17345;SDS011;8790;53.590;10.002;2022-11-20T15:27:55;6.40;;;4.07;;
17345;SDS011;8790;53.590;10.002;2022-11-20T15:30:27;7.00;;;4.40;;
17345;SDS011;8790;53.590;10.002;2022-11-20T15:32:59;9.13;;;5.57;;
17345;SDS011;8790;53.590;10.002;2022-11-20T15:35:31;6.30;;;4.20;;
17345;SDS011;8790;53.590;10.002;2022-11-20T15:38:04;6.90;;;4.53;;